createdAt,value
2023-05-06T00:00:05.689Z,77.58
2023-05-06T00:02:33.754Z,76.95
2023-05-06T00:05:03.335Z,76.64
2023-05-06T00:07:31.312Z,78.44
2023-05-06T00:10:00.621Z,77.70
2023-05-06T00:12:28.686Z,78.79
2023-05-06T00:14:56.552Z,79.36
2023-05-06T00:17:24.490Z,79.34
2023-05-06T00:19:52.476Z,80.34
2023-05-06T00:22:20.459Z,80.80
2023-05-06T00:24:48.412Z,80.65
2023-05-06T00:27:17.761Z,79.84
2023-05-06T00:29:46.036Z,80.21
2023-05-06T00:32:13.941Z,80.90
2023-05-06T00:34:41.869Z,82.32
2023-05-06T00:37:09.845Z,82.39
2023-05-06T00:39:37.853Z,81.69
2023-05-06T00:42:06.017Z,83.63
2023-05-06T00:44:35.717Z,84.79
2023-05-06T00:47:03.718Z,85.18
2023-05-06T00:49:31.932Z,85.73
2023-05-06T00:52:01.327Z,85.49
2023-05-06T00:54:29.957Z,84.96
2023-05-06T00:56:58.017Z,84.35
2023-05-06T00:59:25.886Z,84.80
2023-05-06T01:01:55.139Z,85.11
2023-05-06T01:04:24.097Z,85.17
2023-05-06T01:06:59.764Z,85.88
2023-05-06T01:09:37.567Z,85.17
2023-05-06T01:12:11.191Z,86.44
2023-05-06T01:14:48.060Z,87.15
2023-05-06T01:17:19.783Z,89.40
2023-05-06T01:19:50.417Z,90.92
2023-05-06T01:22:19.526Z,91.51
2023-05-06T01:24:48.870Z,90.28
2023-05-06T01:27:18.321Z,89.41
2023-05-06T01:29:48.371Z,88.88
2023-05-06T01:32:32.313Z,89.40
2023-05-06T01:35:07.621Z,89.49
2023-05-06T01:37:43.109Z,88.80
2023-05-06T01:40:13.815Z,88.40
2023-05-06T01:42:42.382Z,87.85
2023-05-06T01:45:12.640Z,86.10
2023-05-06T01:47:42.662Z,85.81
2023-05-06T01:50:11.554Z,85.56
2023-05-06T01:52:39.566Z,85.51
2023-05-06T01:55:08.859Z,85.67
2023-05-06T01:57:38.547Z,86.45
2023-05-06T02:00:07.805Z,85.44
2023-05-06T02:02:35.798Z,84.66
2023-05-06T02:05:04.112Z,85.39
2023-05-06T02:07:32.028Z,84.57
2023-05-06T02:09:59.933Z,84.24
2023-05-06T02:12:27.822Z,84.45
2023-05-06T02:14:57.597Z,83.95
2023-05-06T02:17:25.477Z,83.96
2023-05-06T02:19:53.360Z,82.50
2023-05-06T02:22:21.305Z,83.02
2023-05-06T02:24:49.198Z,83.91
2023-05-06T02:27:17.144Z,82.90
2023-05-06T02:29:45.132Z,82.00
2023-05-06T02:32:14.376Z,82.62
2023-05-06T02:34:42.368Z,82.08
2023-05-06T02:37:10.363Z,82.38
2023-05-06T02:39:38.236Z,81.98
2023-05-06T02:42:06.497Z,82.46
2023-05-06T02:44:34.571Z,83.11
2023-05-06T02:47:02.522Z,83.81
2023-05-06T02:49:31.822Z,83.32
2023-05-06T02:51:59.743Z,82.78
2023-05-06T02:54:28.386Z,82.44
2023-05-06T02:56:56.379Z,81.64
2023-05-06T02:59:24.754Z,81.85
2023-05-06T03:01:52.646Z,81.57
2023-05-06T03:04:21.324Z,81.94
2023-05-06T03:06:50.565Z,81.79
2023-05-06T03:09:18.467Z,81.10
2023-05-06T03:11:46.378Z,81.30
2023-05-06T03:14:14.351Z,81.63
2023-05-06T03:16:42.329Z,81.05
2023-05-06T03:19:10.185Z,80.48
2023-05-06T03:21:38.348Z,80.61
2023-05-06T03:24:07.959Z,80.80
2023-05-06T03:26:35.941Z,81.00
2023-05-06T03:29:03.880Z,81.32
2023-05-06T03:31:32.135Z,81.29
2023-05-06T03:34:00.151Z,81.45
2023-05-06T03:36:28.123Z,80.44
2023-05-06T03:38:56.232Z,80.70
2023-05-06T03:41:25.749Z,81.29
2023-05-06T03:43:55.651Z,80.81
2023-05-06T03:46:23.625Z,80.07
2023-05-06T03:48:51.471Z,79.57
2023-05-06T03:51:19.630Z,80.09
2023-05-06T03:53:47.614Z,80.15
2023-05-06T03:56:18.157Z,80.02
2023-05-06T03:58:47.441Z,79.99
2023-05-06T04:01:17.262Z,79.30
2023-05-06T04:03:45.817Z,79.02
2023-05-06T04:06:13.740Z,79.65
2023-05-06T04:08:41.626Z,78.90
2023-05-06T04:11:09.943Z,78.06
2023-05-06T04:13:37.865Z,79.07
2023-05-06T04:16:07.748Z,78.82
2023-05-06T04:18:35.638Z,78.26
2023-05-06T04:21:03.594Z,78.13
2023-05-06T04:23:31.470Z,77.68
2023-05-06T04:25:59.459Z,77.67
2023-05-06T04:28:27.359Z,76.17
2023-05-06T04:30:55.280Z,76.20
2023-05-06T04:33:25.630Z,75.48
2023-05-06T04:35:54.835Z,75.83
2023-05-06T04:38:25.813Z,75.55
2023-05-06T04:40:54.056Z,76.89
2023-05-06T04:43:22.012Z,77.44
2023-05-06T04:45:50.209Z,76.48
2023-05-06T04:48:18.928Z,75.80
2023-05-06T04:50:48.252Z,74.36
2023-05-06T04:53:17.081Z,74.17
2023-05-06T04:55:45.066Z,73.74
2023-05-06T04:58:13.006Z,73.50
2023-05-06T05:00:41.151Z,73.01
2023-05-06T05:03:09.074Z,72.72
2023-05-06T05:05:37.032Z,72.38
2023-05-06T05:08:06.870Z,72.56
2023-05-06T05:10:34.783Z,70.75
2023-05-06T05:13:02.876Z,71.17
2023-05-06T05:15:30.849Z,70.09
2023-05-06T05:17:58.826Z,68.80
2023-05-06T05:20:26.813Z,67.69
2023-05-06T05:22:55.044Z,67.29
2023-05-06T05:25:24.712Z,65.83
2023-05-06T05:27:52.574Z,64.27
2023-05-06T05:30:20.873Z,63.18
2023-05-06T05:32:48.854Z,62.48
2023-05-06T05:35:16.865Z,62.10
2023-05-06T05:37:44.852Z,61.91
2023-05-06T05:40:13.383Z,62.42
2023-05-06T05:42:42.718Z,60.04
2023-05-06T05:45:11.628Z,61.27
2023-05-06T05:47:39.679Z,59.11
2023-05-06T05:50:09.102Z,58.28
2023-05-06T05:52:37.051Z,53.75
2023-05-06T05:55:05.436Z,49.93
2023-05-06T05:57:33.400Z,47.79
2023-05-06T06:00:03.006Z,47.21
2023-05-06T06:02:31.005Z,48.68
2023-05-06T06:04:59.064Z,51.75
2023-05-06T06:07:27.109Z,53.33
2023-05-06T06:09:54.993Z,53.65
2023-05-06T06:12:23.615Z,54.91
2023-05-06T06:14:51.711Z,55.95
2023-05-06T06:17:21.005Z,56.05
2023-05-06T06:19:49.054Z,55.29
2023-05-06T06:22:16.908Z,56.00
2023-05-06T06:24:44.933Z,57.19
2023-05-06T06:27:12.910Z,56.18
2023-05-06T06:29:40.820Z,57.08
2023-05-06T06:32:08.783Z,55.96
2023-05-06T06:34:38.056Z,56.33
2023-05-06T06:37:07.381Z,54.80
2023-05-06T06:39:35.958Z,54.95
2023-05-06T06:42:04.363Z,55.75
2023-05-06T06:44:32.356Z,55.49
2023-05-06T06:47:00.317Z,56.21
2023-05-06T06:49:28.769Z,56.31
2023-05-06T06:51:58.062Z,55.45
2023-05-06T06:54:26.183Z,54.40
2023-05-06T06:56:56.028Z,55.65
2023-05-06T06:59:24.037Z,54.70
2023-05-06T07:01:52.366Z,54.37
2023-05-06T07:04:20.280Z,54.88
2023-05-06T07:06:48.156Z,54.87
2023-05-06T07:09:17.409Z,53.78
2023-05-06T07:11:45.491Z,54.33
2023-05-06T07:14:14.033Z,53.45
2023-05-06T07:16:43.914Z,53.50
2023-05-06T07:19:13.179Z,53.02
2023-05-06T07:21:41.165Z,52.36
2023-05-06T07:24:09.812Z,52.35
2023-05-06T07:26:39.381Z,52.49
2023-05-06T07:29:07.264Z,52.67
2023-05-06T07:31:35.252Z,52.33
2023-05-06T07:34:03.223Z,52.01
2023-05-06T07:36:36.059Z,51.08
2023-05-06T07:39:04.905Z,50.34
2023-05-06T07:41:32.809Z,50.19
2023-05-06T07:44:02.142Z,49.63
2023-05-06T07:46:30.682Z,50.39
2023-05-06T07:48:58.749Z,50.15
2023-05-06T07:51:27.152Z,50.18
2023-05-06T07:53:55.027Z,48.02
2023-05-06T07:56:22.963Z,47.66
2023-05-06T07:58:50.896Z,47.85
2023-05-06T08:01:20.176Z,47.17
2023-05-06T08:03:48.173Z,46.15
2023-05-06T08:06:16.107Z,45.38
2023-05-06T08:08:44.043Z,45.06
2023-05-06T08:11:11.960Z,45.08
2023-05-06T08:13:39.935Z,45.56
2023-05-06T08:16:08.557Z,45.01
2023-05-06T08:18:37.924Z,46.06
2023-05-06T08:21:06.520Z,46.37
2023-05-06T08:23:34.512Z,47.36
2023-05-06T08:26:02.503Z,44.94
2023-05-06T08:28:30.467Z,44.33
2023-05-06T08:30:58.375Z,45.12
2023-05-06T08:33:26.407Z,45.10
2023-05-06T08:35:57.588Z,44.18
2023-05-06T08:38:26.761Z,44.43
2023-05-06T08:40:55.348Z,45.25
2023-05-06T08:43:27.232Z,44.95
2023-05-06T08:45:56.128Z,44.77
2023-05-06T08:48:24.163Z,44.44
2023-05-06T08:50:53.101Z,43.78
2023-05-06T08:53:23.097Z,44.99
2023-05-06T08:55:53.562Z,44.12
2023-05-06T08:58:24.554Z,44.50
2023-05-06T09:00:52.674Z,44.21
2023-05-06T09:03:20.910Z,44.10
2023-05-06T09:05:49.086Z,45.01
2023-05-06T09:08:17.066Z,43.30
2023-05-06T09:10:47.377Z,43.64
2023-05-06T09:13:17.295Z,44.48
2023-05-06T09:15:47.378Z,44.73
2023-05-06T09:18:15.753Z,44.73
2023-05-06T09:20:45.493Z,44.97
2023-05-06T09:23:15.251Z,45.20
2023-05-06T09:25:44.504Z,44.73
2023-05-06T09:28:15.325Z,44.84
2023-05-06T09:30:44.857Z,44.77
2023-05-06T09:33:13.302Z,44.41
2023-05-06T09:35:43.203Z,44.39
2023-05-06T09:38:11.988Z,43.86
2023-05-06T09:40:40.496Z,44.42
2023-05-06T09:43:08.973Z,44.64
2023-05-06T09:45:38.572Z,45.25
2023-05-06T09:48:09.535Z,44.28
2023-05-06T09:50:37.972Z,43.04
2023-05-06T09:53:06.716Z,42.40
2023-05-06T09:55:34.829Z,42.85
2023-05-06T09:58:04.788Z,41.93
2023-05-06T10:00:33.098Z,41.71
2023-05-06T10:03:03.733Z,42.09
2023-05-06T10:05:33.267Z,40.71
2023-05-06T10:08:04.341Z,41.06
2023-05-06T10:10:34.607Z,40.88
2023-05-06T10:13:04.483Z,40.39
2023-05-06T10:15:33.744Z,42.77
2023-05-06T10:18:04.359Z,41.88
2023-05-06T10:20:35.212Z,41.00
2023-05-06T10:23:10.959Z,41.40
2023-05-06T10:25:40.741Z,41.82
2023-05-06T10:28:17.221Z,43.10
2023-05-06T10:30:53.050Z,42.77
2023-05-06T10:33:25.990Z,42.10
2023-05-06T10:35:59.448Z,42.16
2023-05-06T10:38:32.196Z,41.77
2023-05-06T10:41:00.524Z,42.14
2023-05-06T10:43:30.947Z,41.87
2023-05-06T10:46:04.126Z,42.07
2023-05-06T10:48:34.083Z,42.58
2023-05-06T10:51:27.349Z,42.56
2023-05-06T10:54:23.047Z,42.51
2023-05-06T10:57:11.997Z,43.09
2023-05-06T10:59:46.674Z,43.97
2023-05-06T11:02:15.619Z,44.12
2023-05-06T11:04:51.337Z,44.71
2023-05-06T11:07:24.722Z,44.91
2023-05-06T11:09:56.938Z,43.94
2023-05-06T11:12:46.122Z,45.14
2023-05-06T11:15:21.748Z,45.02
2023-05-06T11:17:49.682Z,45.38
2023-05-06T11:20:23.851Z,45.08
2023-05-06T11:22:51.913Z,44.72
2023-05-06T11:25:41.914Z,44.20
2023-05-06T11:28:11.081Z,44.70
2023-05-06T11:30:42.310Z,44.19
2023-05-06T11:33:14.894Z,45.43
2023-05-06T11:35:44.252Z,44.38
2023-05-06T11:38:12.214Z,43.46
2023-05-06T11:40:42.594Z,43.97
2023-05-06T11:43:14.475Z,43.27
2023-05-06T11:45:43.647Z,43.19
2023-05-06T11:48:13.360Z,42.73
2023-05-06T11:50:47.670Z,42.69
2023-05-06T11:53:18.955Z,42.88
2023-05-06T11:55:48.083Z,43.47
2023-05-06T11:58:16.731Z,43.25
2023-05-06T12:00:51.409Z,43.24
2023-05-06T12:03:19.854Z,42.92
2023-05-06T12:05:49.920Z,43.19
2023-05-06T12:08:27.511Z,42.80
2023-05-06T12:10:58.860Z,43.79
2023-05-06T12:13:27.801Z,43.16
2023-05-06T12:15:56.692Z,43.55
2023-05-06T12:18:26.024Z,43.70
2023-05-06T12:20:56.545Z,43.23
2023-05-06T12:23:24.593Z,43.26
2023-05-06T12:26:02.639Z,43.04
2023-05-06T12:28:32.122Z,42.29
2023-05-06T12:31:00.028Z,42.94
2023-05-06T12:33:27.970Z,42.88
2023-05-06T12:36:07.808Z,42.66
2023-05-06T12:38:35.687Z,42.37
2023-05-06T12:41:04.387Z,41.46
2023-05-06T12:43:32.735Z,42.00
2023-05-06T12:46:07.499Z,42.38
2023-05-06T12:48:35.896Z,42.86
2023-05-06T12:53:57.731Z,43.81
2023-05-06T12:56:25.777Z,43.62
2023-05-06T12:59:00.890Z,43.86
2023-05-06T13:01:28.913Z,42.97
2023-05-06T13:03:58.306Z,42.06
2023-05-06T13:06:26.232Z,42.90
2023-05-06T13:08:54.190Z,42.06
2023-05-06T13:11:25.737Z,39.96
2023-05-06T13:13:53.734Z,39.17
2023-05-06T13:16:21.696Z,38.84
2023-05-06T13:18:50.598Z,38.40
2023-05-06T13:21:18.560Z,38.64
2023-05-06T13:23:48.060Z,40.12
2023-05-06T13:26:17.391Z,38.97
2023-05-06T13:28:46.664Z,39.41
2023-05-06T13:31:14.637Z,38.99
2023-05-06T13:33:42.557Z,39.51
2023-05-06T13:36:10.955Z,39.26
2023-05-06T13:38:39.319Z,38.88
2023-05-06T13:41:09.304Z,38.96
2023-05-06T13:43:37.178Z,38.44
2023-05-06T13:46:06.559Z,37.50
2023-05-06T13:48:34.543Z,37.67
2023-05-06T13:51:02.653Z,37.53
2023-05-06T13:53:30.779Z,36.66
2023-05-06T13:55:58.654Z,37.99
2023-05-06T13:58:26.789Z,38.13
2023-05-06T14:00:54.701Z,37.61
2023-05-06T14:03:23.942Z,38.63
2023-05-06T14:05:51.955Z,38.19
2023-05-06T14:08:19.894Z,38.34
2023-05-06T14:10:47.980Z,38.21
2023-05-06T14:13:15.888Z,37.72
2023-05-06T14:15:43.835Z,38.68
2023-05-06T14:18:11.811Z,37.95
2023-05-06T14:20:41.098Z,36.99
2023-05-06T14:23:09.450Z,37.68
2023-05-06T14:25:37.408Z,37.29
2023-05-06T14:28:05.510Z,37.99
2023-05-06T14:30:34.363Z,38.25
2023-05-06T14:33:02.394Z,37.75
2023-05-06T14:35:30.432Z,38.56
2023-05-06T14:37:59.760Z,38.86
2023-05-06T14:40:27.952Z,38.60
2023-05-06T14:42:55.887Z,39.68
2023-05-06T14:45:23.877Z,38.94
2023-05-06T14:47:51.919Z,38.57
2023-05-06T14:50:19.852Z,39.06
2023-05-06T14:52:48.243Z,39.15
2023-05-06T14:55:17.775Z,38.96
2023-05-06T14:57:45.641Z,38.88
2023-05-06T15:00:14.954Z,38.68
2023-05-06T15:02:43.021Z,39.02
2023-05-06T15:05:12.309Z,38.90
2023-05-06T15:07:40.564Z,39.34
2023-05-06T15:10:09.042Z,39.77
2023-05-06T15:12:38.356Z,39.47
2023-05-06T15:15:07.690Z,40.44
2023-05-06T15:17:35.596Z,41.92
2023-05-06T15:20:04.445Z,42.09
2023-05-06T15:22:32.334Z,42.98
2023-05-06T15:25:00.538Z,42.01
2023-05-06T15:27:28.447Z,42.24
2023-05-06T15:29:57.742Z,42.09
2023-05-06T15:32:26.149Z,42.21
2023-05-06T15:34:54.186Z,42.19
2023-05-06T15:37:22.308Z,42.55
2023-05-06T15:39:50.382Z,42.03
2023-05-06T15:42:18.275Z,42.88
2023-05-06T15:44:47.984Z,42.64
2023-05-06T15:47:17.326Z,43.03
2023-05-06T15:49:54.047Z,43.45
2023-05-06T15:52:22.945Z,43.34
2023-05-06T15:54:50.934Z,44.38
2023-05-06T15:57:19.189Z,44.56
2023-05-06T15:59:47.100Z,44.56
2023-05-06T16:02:26.683Z,44.24
2023-05-06T16:04:56.464Z,44.82
2023-05-06T16:07:24.523Z,44.66
2023-05-06T16:09:52.390Z,44.75
2023-05-06T16:12:20.396Z,44.98
2023-05-06T16:14:48.326Z,45.01
2023-05-06T16:17:16.822Z,44.73
2023-05-06T16:19:44.679Z,45.26
2023-05-06T16:22:13.948Z,45.42
2023-05-06T16:24:41.813Z,45.42
2023-05-06T16:27:09.706Z,46.01
2023-05-06T16:29:37.625Z,46.26
2023-05-06T16:32:06.020Z,46.52
2023-05-06T16:34:33.883Z,46.78
2023-05-06T16:37:01.795Z,47.42
2023-05-06T16:39:31.064Z,47.68
2023-05-06T16:41:58.956Z,47.87
2023-05-06T16:44:27.072Z,48.37
2023-05-06T16:46:55.117Z,48.61
2023-05-06T16:49:23.121Z,48.59
2023-05-06T16:51:51.028Z,48.90
2023-05-06T16:54:18.946Z,48.96
2023-05-06T16:56:51.999Z,48.93
2023-05-06T16:59:22.261Z,48.98
2023-05-06T17:01:50.766Z,49.12
2023-05-06T17:04:18.749Z,49.56
2023-05-06T17:06:46.682Z,49.74
2023-05-06T17:09:14.511Z,49.89
2023-05-06T17:11:42.664Z,50.24
2023-05-06T17:14:12.235Z,51.04
2023-05-06T17:16:40.410Z,50.90
2023-05-06T17:19:08.412Z,51.24
2023-05-06T17:21:36.436Z,51.43
2023-05-06T17:24:04.621Z,51.71
2023-05-06T17:26:33.275Z,51.69
2023-05-06T17:29:01.415Z,51.99
2023-05-06T17:31:30.822Z,51.45
2023-05-06T17:33:58.744Z,51.39
2023-05-06T17:36:26.653Z,51.80
2023-05-06T17:39:02.710Z,51.86
2023-05-06T17:41:30.677Z,51.52
2023-05-06T17:43:58.602Z,51.70
2023-05-06T17:46:26.773Z,52.11
2023-05-06T17:48:56.021Z,51.00
2023-05-06T17:51:23.923Z,52.05
2023-05-06T17:53:51.887Z,53.07
2023-05-06T17:56:20.284Z,52.20
2023-05-06T17:58:48.692Z,53.77
2023-05-06T18:01:16.699Z,54.07
2023-05-06T18:03:44.981Z,53.74
2023-05-06T18:06:14.402Z,53.76
2023-05-06T18:08:42.377Z,52.29
2023-05-06T18:11:11.047Z,52.20
2023-05-06T18:13:39.125Z,52.79
2023-05-06T18:16:07.693Z,52.67
2023-05-06T18:18:35.736Z,52.82
2023-05-06T18:21:03.630Z,53.20
2023-05-06T18:23:33.276Z,53.98
2023-05-06T18:26:01.247Z,53.64
2023-05-06T18:28:29.110Z,53.62
2023-05-06T18:30:57.014Z,53.33
2023-05-06T18:33:24.968Z,53.23
2023-05-06T18:35:52.947Z,54.71
2023-05-06T18:38:21.046Z,55.31
2023-05-06T18:40:50.348Z,55.46
2023-05-06T18:43:18.233Z,55.56
2023-05-06T18:45:46.120Z,56.01
2023-05-06T18:48:14.053Z,55.94
2023-05-06T18:50:42.907Z,56.31
2023-05-06T18:53:10.855Z,57.62
2023-05-06T18:55:38.748Z,57.68
2023-05-06T18:58:08.035Z,57.28
2023-05-06T19:00:36.052Z,57.48
2023-05-06T19:03:03.948Z,56.89
2023-05-06T19:05:31.980Z,57.73
2023-05-06T19:07:59.933Z,58.39
2023-05-06T19:10:27.836Z,59.13
2023-05-06T19:12:55.920Z,60.41
2023-05-06T19:15:25.212Z,60.71
2023-05-06T19:17:53.114Z,60.94
2023-05-06T19:20:21.151Z,60.61
2023-05-06T19:22:49.119Z,61.01
2023-05-06T19:25:17.268Z,61.82
2023-05-06T19:27:45.368Z,61.75
2023-05-06T19:30:13.424Z,62.03
2023-05-06T19:32:44.532Z,62.58
2023-05-06T19:35:13.149Z,62.94
2023-05-06T19:37:41.140Z,63.04
2023-05-06T19:40:10.169Z,62.84
2023-05-06T19:42:38.028Z,61.65
2023-05-06T19:45:08.581Z,62.86
2023-05-06T19:47:36.629Z,63.42
2023-05-06T19:50:07.360Z,63.78
2023-05-06T19:52:35.478Z,64.45
2023-05-06T19:55:03.468Z,63.83
2023-05-06T19:57:31.897Z,63.49
2023-05-06T20:00:00.497Z,64.52
2023-05-06T20:02:28.550Z,65.06
2023-05-06T20:04:56.507Z,65.68
2023-05-06T20:07:25.738Z,64.78
2023-05-06T20:09:55.491Z,65.43
2023-05-06T20:12:23.537Z,65.54
2023-05-06T20:14:51.569Z,65.11
2023-05-06T20:17:19.584Z,65.12
2023-05-06T20:19:47.942Z,65.60
2023-05-06T20:22:16.085Z,66.03
2023-05-06T20:24:45.860Z,66.63
2023-05-06T20:27:13.707Z,66.08
2023-05-06T20:29:42.604Z,65.68
2023-05-06T20:32:10.561Z,65.24
2023-05-06T20:34:38.532Z,65.35
2023-05-06T20:37:06.777Z,64.10
2023-05-06T20:39:34.813Z,65.09
2023-05-06T20:42:04.160Z,65.55
2023-05-06T20:44:32.068Z,69.03
2023-05-06T20:46:59.931Z,69.82
2023-05-06T20:49:27.841Z,70.61
2023-05-06T20:51:56.136Z,72.33
2023-05-06T20:54:24.124Z,71.98
2023-05-06T20:56:52.051Z,72.98
2023-05-06T20:59:21.874Z,73.51
2023-05-06T21:01:49.812Z,74.27
2023-05-06T21:04:17.867Z,73.54
2023-05-06T21:06:46.401Z,73.49
2023-05-06T21:09:14.416Z,73.19
2023-05-06T21:11:42.373Z,72.23
2023-05-06T21:14:10.305Z,72.34
2023-05-06T21:16:40.648Z,72.50
2023-05-06T21:19:08.682Z,72.56
2023-05-06T21:21:36.716Z,72.27
2023-05-06T21:24:04.937Z,72.50
2023-05-06T21:26:33.818Z,74.50
2023-05-06T21:29:01.754Z,76.33
2023-05-06T21:31:30.346Z,77.75
2023-05-06T21:34:00.283Z,75.57
2023-05-06T21:36:28.283Z,78.05
2023-05-06T21:39:09.213Z,79.26
2023-05-06T21:41:37.548Z,81.32
2023-05-06T21:44:06.905Z,81.76
2023-05-06T21:46:35.166Z,81.96
2023-05-06T21:49:04.819Z,81.61
2023-05-06T21:51:34.419Z,82.52
2023-05-06T21:54:02.587Z,84.41
2023-05-06T21:56:30.593Z,83.98
2023-05-06T21:58:58.494Z,85.30
2023-05-06T22:01:27.053Z,85.47
2023-05-06T22:03:55.647Z,84.92
2023-05-06T22:06:25.132Z,85.11
2023-05-06T22:08:53.385Z,86.67
2023-05-06T22:11:22.678Z,89.15
2023-05-06T22:13:50.537Z,91.21
2023-05-06T22:16:18.530Z,91.88
2023-05-06T22:18:46.565Z,88.81
2023-05-06T22:21:14.482Z,91.55
2023-05-06T22:23:43.725Z,89.66
2023-05-06T22:26:12.124Z,89.72
2023-05-06T22:28:40.064Z,89.68
2023-05-06T22:31:08.047Z,90.91
2023-05-06T22:33:35.974Z,88.63
2023-05-06T22:36:03.930Z,88.92
2023-05-06T22:38:31.896Z,87.76
2023-05-06T22:41:01.085Z,86.83
2023-05-06T22:43:28.946Z,84.86
2023-05-06T22:45:56.971Z,86.43
2023-05-06T22:48:25.206Z,87.30
2023-05-06T22:50:53.796Z,87.07
2023-05-06T22:53:21.734Z,84.46
2023-05-06T22:55:49.659Z,84.28
2023-05-06T22:58:18.975Z,82.21
2023-05-06T23:00:47.968Z,79.76
2023-05-06T23:03:17.985Z,77.09
2023-05-06T23:05:45.982Z,79.15
2023-05-06T23:08:13.973Z,78.19
2023-05-06T23:10:41.950Z,80.31
2023-05-06T23:13:10.075Z,85.14
2023-05-06T23:15:39.452Z,88.81
2023-05-06T23:18:07.828Z,92.23
2023-05-06T23:20:35.873Z,94.46
2023-05-06T23:23:03.764Z,94.52
2023-05-06T23:25:31.691Z,97.08
2023-05-06T23:27:59.535Z,99.56
2023-05-06T23:30:27.590Z,97.92
2023-05-06T23:32:56.897Z,97.98
2023-05-06T23:35:24.840Z,99.89
2023-05-06T23:37:52.779Z,98.48
2023-05-06T23:40:20.845Z,98.44
2023-05-06T23:42:48.777Z,98.92
2023-05-06T23:45:16.801Z,100.00
2023-05-06T23:47:44.717Z,100.00
2023-05-06T23:50:14.419Z,100.00
2023-05-06T23:52:42.576Z,100.00
2023-05-06T23:55:11.204Z,100.00
2023-05-06T23:57:39.361Z,100.00
